ěÝzenÝ letovÚho provozu ╚eskÚ republiky
Letiste: LKTB Aktualizace: 27.02.2020 00:30:27  UTC
 METAR LKTB 27.02. 00:30 ...
METAR LKTB 270030Z 29003KT CAVOK 02/M02 Q1003 NOSIG RMK REG QNH 0999=
 TAF LKTB 26.02. 23:00 ...
TAF LKTB 262300Z 2700/2806 28010KT 9999 SCT033      PROB30 TEMPO 2710/2716 8000 -SHRA SCT027TCU      BECMG 2715/2717 15010KT      BECMG 2722/2800 7000 -SNRA BKN017      TEMPO 2800/2806 2500 SN OVC011      BECMG 2801/2803 34014KT      TEMPO 2804/2806 35018G28KT=